Anton, TX

4:25 PM CST on January 29, 2015 (GMT -0600)
Spade Coop | Change Station
CLOSE
Current Station
Personal Weather Station
Location: Littlefield, TX
Elevation: 3527 ft
Nearby Weather Stations
Active Advisory: Special Statement

Elev 3527 ft 33.93 °N, 102.16 °W | Updated 14 minutes ago

Overcast
Overcast
50.4 °F
Feels Like 50.4 °F
N
5.0
Wind Variable Wind from NNE
Gusts 13.0 mph

Today
High -- | Low -- °F
--% Chance of Precip.
Yesterday
High -- | Low -- °F
Precip. -- in
7:47 AM 6:16 PM
Waxing Gibbous, 77% visible
Pressure 30.39 in
Visibility 10.0 miles
Clouds Few 16000 ft
Scattered Clouds 18000 ft
Overcast 26000 ft
Dew Point 25 °F
Humidity 37%
Rainfall 0.00 in
Snow Depth Not available.
UV 1 out of 12
Pollen 6.80 out of 12
Air Quality Not available.
Flu Activity Not available.
METAR KLBB 292153Z 03017KT 10SM FEW160 SCT180 OVC260 12/M05 A3042 RMK AO2 SLP289 VIRGA DSNT W T01171050

More Conditions Fewer Conditions

Pressure 30.39 in
Visibility 10.0 miles
Clouds Few 16000 ft
Scattered Clouds 18000 ft
Overcast 26000 ft
Dew Point 25 °F
Humidity 37%
Rainfall 0.00 in
Snow Depth Not available.
UV 1 out of 12
Pollen 6.80 out of 12
Air Quality Not available.
Flu Activity Not available.
METAR KLBB 292153Z 03017KT 10SM FEW160 SCT180 OVC260 12/M05 A3042 RMK AO2 SLP289 VIRGA DSNT W T01171050

More Conditions Fewer Conditions

10-Day Weather Forecast

Almanac

Astronomy

Jan. 29, 2015 Rise Set
Actual Time
Civil Twilight
Nautical Twilight
Astronomical Twilight
Moon
Length of Visible Light
Length of Day
Tomorrow will be .
, % of the Moon is Illuminated

Today's Extremes

State Highs State Lows

Community

WunderPhotos

Upload Photos

1,791,629 photos uploaded!

WunderBlogs® & News

Nearby

Air Quality

  Air Quality AQ Index Pollutant
Not available.

Snow Depth

Station Depth Elevation

Earthquake Activity

City Distance Mag. Time & Date
Minimum magnitude displayed is 2.5.

Coastal Water Temperatures

Place Temperature

Nearby Weather Stations